Time;durP1;ratioP1;P1;durP2;ratioP2;P2;SDS_P1;SDS_P2;PMS_P1;PMS_P2;Temp;Humidity;BMP_temperature;BMP_pressure;BME280_temperature;BME280_humidity;BME280_pressure;Samples;Min_cycle;Max_cycle;Signal;HPM_P1;HPM_P2
2022/02/07 00:01:10;;;;;;;9.70;2.08;;;12.00;60.30;;;;;;5018195;28;20077;-80
2022/02/07 00:03:43;;;;;;;11.95;2.08;;;11.90;59.70;;;;;;5033519;28;20049;-78
2022/02/07 00:06:10;;;;;;;9.73;2.28;;;11.90;60.00;;;;;;5035066;28;20089;-76
2022/02/07 00:08:35;;;;;;;11.82;2.13;;;12.00;60.30;;;;;;5035205;28;20068;-77
2022/02/07 00:11:02;;;;;;;12.57;2.33;;;11.90;60.40;;;;;;5033866;28;20061;-76
2022/02/07 00:13:28;;;;;;;15.00;3.10;;;11.90;60.90;;;;;;5034976;28;20356;-78
2022/02/07 00:15:54;;;;;;;10.38;2.08;;;11.90;60.60;;;;;;5035116;28;20062;-77
2022/02/07 00:18:22;;;;;;;9.25;1.67;;;11.90;60.00;;;;;;5034223;28;20057;-77
2022/02/07 00:20:47;;;;;;;10.77;2.33;;;11.80;59.30;;;;;;5034829;28;20088;-78
2022/02/07 00:23:13;;;;;;;10.40;1.98;;;11.80;58.90;;;;;;5034788;28;20077;-79
2022/02/07 00:25:39;;;;;;;8.02;2.33;;;11.80;60.10;;;;;;5034460;28;20083;-77
2022/02/07 00:28:05;;;;;;;7.97;2.15;;;11.70;60.40;;;;;;5034859;28;20068;-77
2022/02/07 00:30:30;;;;;;;8.23;2.00;;;11.70;60.20;;;;;;5038414;28;20136;-79
2022/02/07 00:32:56;;;;;;;8.40;2.35;;;11.70;60.20;;;;;;5037651;28;20510;-77
2022/02/07 00:35:23;;;;;;;12.50;2.78;;;11.70;61.50;;;;;;5038869;28;20052;-76
2022/02/07 00:37:52;;;;;;;12.30;2.05;;;11.70;61.10;;;;;;5039413;28;20052;-77
2022/02/07 00:47:52;;;;;;;10.57;1.52;;;11.80;61.10;;;;;;5039144;28;20084;-77
2022/02/07 00:50:18;;;;;;;6.90;1.95;;;11.90;60.90;;;;;;5038447;28;20049;-77
2022/02/07 00:52:43;;;;;;;5.43;1.48;;;11.90;60.90;;;;;;5038543;28;20348;-76
2022/02/07 00:55:09;;;;;;;8.98;1.52;;;12.00;61.00;;;;;;5038157;28;20049;-76
2022/02/07 00:57:35;;;;;;;7.35;1.80;;;12.00;60.90;;;;;;5037416;28;20148;-78
2022/02/07 01:00:00;;;;;;;9.25;1.90;;;12.10;61.00;;;;;;5038851;28;20057;-78
2022/02/07 01:02:26;;;;;;;8.63;1.60;;;12.10;61.00;;;;;;5037494;28;20088;-77
2022/02/07 01:04:52;;;;;;;6.60;1.85;;;12.20;61.00;;;;;;5038086;28;20348;-79
2022/02/07 01:07:17;;;;;;;6.57;1.52;;;12.20;60.80;;;;;;5038475;28;20080;-78
2022/02/07 01:09:49;;;;;;;9.73;1.92;;;12.20;60.60;;;;;;5038482;28;20099;-76
2022/02/07 01:12:38;;;;;;;8.25;1.65;;;12.30;60.80;;;;;;5037029;28;20092;-76
2022/02/07 01:15:23;;;;;;;7.13;1.80;;;12.20;60.50;;;;;;5037977;28;20515;-77
2022/02/07 01:57:57;;;;;;;8.13;2.08;;;12.20;61.10;;;;;;5036422;28;20045;-77
2022/02/07 02:00:23;;;;;;;8.32;1.63;;;12.20;61.00;;;;;;5036409;28;20053;-78
2022/02/07 02:02:48;;;;;;;6.28;1.70;;;12.20;60.80;;;;;;5037177;28;20043;-78
2022/02/07 02:05:15;;;;;;;9.95;2.08;;;12.20;60.90;;;;;;5037081;28;20049;-77
2022/02/07 02:07:41;;;;;;;10.85;2.70;;;12.30;60.90;;;;;;5037754;28;20348;-79
2022/02/07 02:10:08;;;;;;;14.98;3.10;;;12.20;60.50;;;;;;5036202;28;20049;-77
2022/02/07 02:12:41;;;;;;;6.85;2.20;;;12.20;60.70;;;;;;5036893;28;20041;-79
2022/02/07 02:34:17;;;;;;;9.27;2.30;;;12.10;61.50;;;;;;5035487;28;20128;-76
2022/02/07 02:47:20;;;;;;;12.00;2.65;;;12.20;61.20;;;;;;5036345;28;20053;-78
2022/02/07 02:50:03;;;;;;;12.50;3.17;;;12.20;61.30;;;;;;5036893;28;20045;-77
2022/02/07 02:52:28;;;;;;;16.85;2.95;;;12.20;61.00;;;;;;5035787;28;20049;-79
2022/02/07 02:54:54;;;;;;;10.95;2.67;;;12.10;61.30;;;;;;5036137;28;20458;-77
2022/02/07 02:57:20;;;;;;;10.68;2.30;;;12.10;61.40;;;;;;5036309;28;20055;-77
2022/02/07 02:59:46;;;;;;;10.52;2.05;;;12.10;61.70;;;;;;5036260;28;20103;-78
2022/02/07 03:02:11;;;;;;;13.25;2.25;;;12.10;61.90;;;;;;5034821;28;20138;-78
2022/02/07 03:04:37;;;;;;;9.10;2.38;;;12.10;61.90;;;;;;5036085;28;20045;-78
2022/02/07 03:07:03;;;;;;;8.40;2.80;;;12.10;62.10;;;;;;5035495;28;20159;-77
2022/02/07 03:09:29;;;;;;;13.40;2.00;;;12.10;62.50;;;;;;5036793;28;20140;-78
2022/02/07 03:11:56;;;;;;;12.13;2.30;;;12.10;62.50;;;;;;5035333;28;20045;-77
2022/02/07 03:14:34;;;;;;;10.90;2.58;;;12.10;62.50;;;;;;5036234;28;20383;-78
2022/02/07 03:17:00;;;;;;;13.68;3.38;;;12.20;62.30;;;;;;5036088;28;20084;-78
2022/02/07 03:19:25;;;;;;;9.13;2.17;;;12.20;62.30;;;;;;5036295;28;20046;-77
2022/02/07 03:21:51;;;;;;;9.60;3.10;;;12.10;62.40;;;;;;5036139;28;20484;-79
2022/02/07 03:24:17;;;;;;;11.68;3.10;;;12.20;62.40;;;;;;5034976;28;20468;-77
2022/02/07 03:26:44;;;;;;;15.52;3.22;;;12.20;62.30;;;;;;5034307;28;20073;-78
2022/02/07 03:29:12;;;;;;;13.18;2.80;;;12.20;62.50;;;;;;5035672;28;20061;-78
2022/02/07 03:31:38;;;;;;;9.25;2.47;;;12.20;62.40;;;;;;5036071;28;20061;-78
2022/02/07 03:34:04;;;;;;;12.63;2.47;;;12.20;62.50;;;;;;5034608;28;20046;-78
2022/02/07 03:36:32;;;;;;;11.80;2.97;;;12.40;62.70;;;;;;5035594;28;20411;-77
2022/02/07 03:38:59;;;;;;;14.23;3.05;;;12.30;62.30;;;;;;5035040;28;20060;-79
2022/02/07 03:41:24;;;;;;;12.75;3.40;;;12.30;62.30;;;;;;5034876;28;20045;-77
2022/02/07 03:43:54;;;;;;;14.90;3.28;;;12.30;62.40;;;;;;5034610;28;20072;-77
2022/02/07 03:46:19;;;;;;;10.73;3.08;;;12.20;62.20;;;;;;5035595;28;20050;-78
2022/02/07 03:48:45;;;;;;;11.55;2.85;;;12.20;62.40;;;;;;5034552;28;20045;-79
2022/02/07 03:51:11;;;;;;;10.15;2.97;;;12.30;62.50;;;;;;5035619;28;20068;-76
2022/02/07 03:53:37;;;;;;;10.25;2.97;;;12.30;62.30;;;;;;5035125;28;20045;-79
2022/02/07 03:56:04;;;;;;;13.05;2.92;;;12.30;62.30;;;;;;5034280;28;20072;-78
2022/02/07 03:58:30;;;;;;;11.05;2.63;;;12.30;62.40;;;;;;5035466;28;20048;-77
2022/02/07 04:00:56;;;;;;;12.63;3.22;;;12.30;62.00;;;;;;5035408;28;20053;-78
2022/02/07 04:03:26;;;;;;;12.32;3.15;;;12.30;62.30;;;;;;5034343;28;20050;-77
2022/02/07 04:05:56;;;;;;;9.65;3.08;;;12.30;62.20;;;;;;5034807;28;20076;-77
2022/02/07 04:08:29;;;;;;;11.02;2.85;;;12.40;62.30;;;;;;5035192;28;20061;-78
2022/02/07 04:11:15;;;;;;;15.15;3.10;;;12.30;62.30;;;;;;5035474;28;20115;-78
2022/02/07 04:13:48;;;;;;;13.02;2.95;;;12.40;62.10;;;;;;5034006;28;20071;-77
2022/02/07 04:16:14;;;;;;;11.27;2.97;;;12.40;62.10;;;;;;5035199;28;20051;-77
2022/02/07 04:21:24;;;;;;;11.98;3.28;;;12.40;62.10;;;;;;5035664;28;20053;-78
2022/02/07 04:23:51;;;;;;;15.40;2.83;;;12.40;61.90;;;;;;5034885;28;20091;-79
2022/02/07 04:26:17;;;;;;;8.88;3.38;;;12.40;61.80;;;;;;5035366;28;20050;-78
2022/02/07 04:28:42;;;;;;;9.40;2.53;;;12.40;62.00;;;;;;5035271;28;20049;-78
2022/02/07 04:31:08;;;;;;;11.27;3.05;;;12.40;61.70;;;;;;5035342;28;20056;-77
2022/02/07 04:33:34;;;;;;;13.50;4.10;;;12.40;61.50;;;;;;5034666;28;20057;-77
2022/02/07 04:35:59;;;;;;;12.30;2.50;;;12.40;61.80;;;;;;5035374;28;20053;-77
2022/02/07 04:38:25;;;;;;;11.63;2.63;;;12.40;61.70;;;;;;5034610;28;20060;-78
2022/02/07 04:40:51;;;;;;;16.23;3.05;;;12.40;61.70;;;;;;5034094;28;20049;-78
2022/02/07 04:43:18;;;;;;;13.18;3.35;;;12.40;61.70;;;;;;5033672;28;20100;-77
2022/02/07 04:51:13;;;;;;;14.93;2.60;;;12.20;61.70;;;;;;5035068;28;20450;-77
2022/02/07 05:03:51;;;;;;;12.75;2.85;;;12.30;62.00;;;;;;5034696;28;20436;-77
2022/02/07 05:14:32;;;;;;;12.13;3.08;;;12.30;61.80;;;;;;5034689;28;20053;-77
2022/02/07 05:16:59;;;;;;;13.80;3.05;;;12.40;61.90;;;;;;5037669;28;20088;-79
2022/02/07 05:19:24;;;;;;;12.68;3.00;;;12.40;61.80;;;;;;5038279;28;20061;-79
2022/02/07 05:21:50;;;;;;;11.93;3.25;;;12.40;61.90;;;;;;5020988;28;20049;-77
2022/02/07 05:24:16;;;;;;;10.75;2.45;;;12.40;61.50;;;;;;5020627;28;20085;-78
2022/02/07 05:26:42;;;;;;;9.02;2.28;;;12.40;61.40;;;;;;5038476;28;20077;-79
2022/02/07 05:29:07;;;;;;;10.25;2.25;;;12.50;61.30;;;;;;5037868;28;20064;-80
2022/02/07 05:31:34;;;;;;;10.57;2.45;;;12.50;61.10;;;;;;5037595;28;20064;-78
2022/02/07 05:34:00;;;;;;;6.95;2.20;;;12.50;61.10;;;;;;5036516;28;20404;-78
2022/02/07 05:36:26;;;;;;;9.05;1.75;;;12.60;61.40;;;;;;5038183;28;20060;-78
2022/02/07 05:38:56;;;;;;;9.07;2.17;;;12.60;61.40;;;;;;5037915;28;20041;-77
2022/02/07 05:41:22;;;;;;;10.00;2.25;;;12.70;61.30;;;;;;5037745;28;20384;-78
2022/02/07 05:43:50;;;;;;;10.30;2.08;;;12.70;61.30;;;;;;5037576;28;20037;-77
2022/02/07 05:46:20;;;;;;;9.75;2.28;;;12.70;61.20;;;;;;5037035;28;20057;-77
2022/02/07 05:48:51;;;;;;;11.52;2.45;;;12.70;61.50;;;;;;5036866;28;20053;-79
2022/02/07 05:51:16;;;;;;;7.63;1.77;;;12.80;61.50;;;;;;5020344;28;20187;-75
2022/02/07 05:53:42;;;;;;;13.90;2.30;;;12.90;61.20;;;;;;5036543;28;20124;-77
2022/02/07 05:56:08;;;;;;;17.23;2.90;;;12.90;60.70;;;;;;5036871;28;20069;-77
2022/02/07 05:58:34;;;;;;;9.75;2.00;;;12.80;60.30;;;;;;5037342;28;20034;-77
2022/02/07 06:00:59;;;;;;;8.70;2.05;;;12.80;60.50;;;;;;5019613;28;20045;-76
2022/02/07 06:03:25;;;;;;;8.60;1.70;;;12.80;60.80;;;;;;5019829;28;20041;-76
2022/02/07 06:05:51;;;;;;;9.00;1.65;;;13.00;60.90;;;;;;5019943;28;20057;-75
2022/02/07 06:08:17;;;;;;;9.35;1.80;;;13.10;60.80;;;;;;5036745;28;20084;-73
2022/02/07 06:10:44;;;;;;;10.18;2.03;;;13.30;60.40;;;;;;5037357;28;20430;-77
2022/02/07 06:13:18;;;;;;;7.32;1.65;;;13.70;60.10;;;;;;5033151;28;20058;-78
2022/02/07 06:15:44;;;;;;;11.27;2.20;;;14.00;59.80;;;;;;5036981;28;20053;-79
2022/02/07 06:18:12;;;;;;;14.70;2.67;;;14.30;59.50;;;;;;5037115;28;20124;-77
2022/02/07 06:20:41;;;;;;;9.10;1.70;;;14.50;59.40;;;;;;5037084;28;20111;-79
2022/02/07 06:23:06;;;;;;;16.20;3.25;;;14.70;59.50;;;;;;5021838;28;20053;-75
2022/02/07 06:25:32;;;;;;;12.65;2.25;;;14.40;58.40;;;;;;5016661;28;20361;-75
2022/02/07 06:27:58;;;;;;;22.10;2.55;;;14.60;60.80;;;;;;5015665;28;20124;-76
2022/02/07 06:30:24;;;;;;;17.70;3.33;;;14.70;61.30;;;;;;5017024;28;20046;-74
2022/02/07 06:32:49;;;;;;;21.40;3.58;;;14.90;61.80;;;;;;5015979;28;20393;-76
2022/02/07 06:35:15;;;;;;;19.83;2.42;;;15.10;62.00;;;;;;5016944;28;20064;-75
2022/02/07 06:37:42;;;;;;;8.38;2.10;;;15.30;62.10;;;;;;5015828;28;20049;-78
2022/02/07 06:40:09;;;;;;;13.88;2.45;;;15.40;62.20;;;;;;5016075;28;20572;-77
2022/02/07 06:42:38;;;;;;;11.90;2.40;;;15.50;62.30;;;;;;5016651;28;20064;-78
2022/02/07 06:45:04;;;;;;;12.23;2.67;;;15.50;62.50;;;;;;5032212;28;20048;-76
2022/02/07 06:47:30;;;;;;;12.45;2.60;;;15.60;62.50;;;;;;5034976;28;20049;-77
2022/02/07 06:49:59;;;;;;;15.93;2.42;;;15.60;62.60;;;;;;5036071;28;20515;-80
2022/02/07 06:52:24;;;;;;;15.77;2.75;;;15.70;62.50;;;;;;5034903;28;20056;-79
2022/02/07 06:54:50;;;;;;;10.02;2.08;;;15.70;61.70;;;;;;5036287;28;20046;-81
2022/02/07 06:57:19;;;;;;;16.27;2.42;;;15.70;61.80;;;;;;5017822;28;20052;-75
2022/02/07 06:59:47;;;;;;;18.17;2.90;;;15.80;62.60;;;;;;5036169;28;20042;-77
2022/02/07 07:02:13;;;;;;;14.80;2.35;;;15.90;61.90;;;;;;5034889;28;20052;-76
2022/02/07 07:04:38;;;;;;;24.20;3.30;;;16.00;61.60;;;;;;5036414;28;20053;-78
2022/02/07 07:07:04;;;;;;;15.75;3.20;;;16.20;61.40;;;;;;5034754;28;20107;-78
2022/02/07 07:09:32;;;;;;;17.05;3.85;;;16.30;61.00;;;;;;5017963;28;20111;-78
2022/02/07 07:12:03;;;;;;;18.15;3.03;;;16.40;60.50;;;;;;5035060;28;20048;-78
2022/02/07 07:14:40;;;;;;;18.60;3.38;;;16.40;60.30;;;;;;5034212;28;20076;-78
2022/02/07 07:17:06;;;;;;;23.13;2.75;;;16.40;60.20;;;;;;5033721;28;20372;-78
2022/02/07 07:19:32;;;;;;;14.70;2.33;;;16.40;60.10;;;;;;5036028;28;20045;-79
2022/02/07 07:21:59;;;;;;;10.98;2.20;;;16.30;60.00;;;;;;5035127;28;20041;-79
2022/02/07 07:24:25;;;;;;;12.90;2.55;;;16.20;60.00;;;;;;5034132;28;20073;-80
2022/02/07 07:26:51;;;;;;;10.70;2.40;;;16.20;60.10;;;;;;5035072;28;20056;-78
2022/02/07 07:29:21;;;;;;;13.70;2.55;;;15.90;60.10;;;;;;5017848;28;20057;-77
2022/02/07 07:31:55;;;;;;;15.52;2.38;;;15.90;60.60;;;;;;5035773;28;20120;-79
2022/02/07 07:34:22;;;;;;;;;;;15.80;60.70;;;;;;5035193;28;20160;-77
2022/02/07 07:36:48;;;;;;;13.20;3.00;;;15.80;61.60;;;;;;5035221;28;19921;-77
2022/02/07 07:39:15;;;;;;;14.40;2.75;;;15.70;61.70;;;;;;5035110;28;20041;-76
2022/02/07 07:41:43;;;;;;;10.88;2.63;;;15.70;61.60;;;;;;5035062;28;20430;-73
2022/02/07 07:44:09;;;;;;;11.07;2.60;;;15.70;61.30;;;;;;5018140;28;20049;-78
2022/02/07 07:46:36;;;;;;;16.38;3.33;;;15.70;61.10;;;;;;5035554;28;20045;-77
2022/02/07 07:49:11;;;;;;;18.70;3.05;;;15.80;61.20;;;;;;5034891;28;20042;-78
2022/02/07 08:02:12;;;;;;;24.40;4.70;;;15.90;61.80;;;;;;5034674;28;20045;-80
2022/02/07 08:04:40;;;;;;;13.63;3.40;;;15.90;63.00;;;;;;5033884;28;20045;-78
2022/02/07 08:07:14;;;;;;;15.88;2.90;;;16.00;63.80;;;;;;5035075;28;20037;-79
2022/02/07 08:12:10;;;;;;;12.80;2.50;;;16.10;63.60;;;;;;5027479;28;20120;-75
2022/02/07 08:14:36;;;;;;;11.70;2.85;;;16.10;62.90;;;;;;5033565;28;20049;-80
2022/02/07 08:17:03;;;;;;;9.88;2.97;;;16.10;63.00;;;;;;5034677;28;20121;-80
2022/02/07 08:19:51;;;;;;;14.20;2.67;;;16.10;63.10;;;;;;5034560;28;20372;-81
2022/02/07 08:22:38;;;;;;;14.43;2.97;;;16.10;63.20;;;;;;5017215;28;20099;-83
2022/02/07 08:25:06;;;;;;;11.07;2.42;;;16.10;63.30;;;;;;5006248;28;20100;-78
2022/02/07 08:27:32;;;;;;;17.77;3.10;;;16.20;63.10;;;;;;5014344;28;20057;-83
2022/02/07 08:29:58;;;;;;;17.73;2.85;;;16.20;63.00;;;;;;5014276;28;20452;-82
2022/02/07 08:32:25;;;;;;;16.13;3.50;;;16.40;63.00;;;;;;4998771;28;20038;-83
2022/02/07 08:34:50;;;;;;;22.55;3.90;;;16.40;62.40;;;;;;5023885;28;20449;-85
2022/02/07 08:37:16;;;;;;;12.82;3.58;;;16.20;59.10;;;;;;5005895;28;20116;-73
2022/02/07 08:39:42;;;;;;;14.43;3.58;;;16.40;55.80;;;;;;5013992;28;20103;-84
2022/02/07 08:42:09;;;;;;;12.15;3.00;;;16.10;60.60;;;;;;4997978;28;20100;-84
2022/02/07 08:44:36;;;;;;;19.33;3.95;;;16.30;61.50;;;;;;5021913;28;20124;-80
2022/02/07 08:47:17;;;;;;;19.95;3.47;;;16.40;61.70;;;;;;5033743;28;20042;-80
2022/02/07 08:49:44;;;;;;;20.92;3.83;;;16.60;61.60;;;;;;5002683;28;20041;-81
2022/02/07 08:52:10;;;;;;;23.42;3.67;;;16.70;60.80;;;;;;5016930;28;20102;-82
2022/02/07 08:54:37;;;;;;;21.73;3.92;;;16.80;60.90;;;;;;5028413;28;20115;-82
2022/02/07 08:57:18;;;;;;;22.48;3.35;;;16.80;60.60;;;;;;5028880;28;20071;-82
2022/02/07 09:00:00;;;;;;;16.50;3.08;;;16.80;60.80;;;;;;5017728;28;20084;-85
2022/02/07 09:10:30;;;;;;;11.25;3.03;;;16.80;60.00;;;;;;5038026;28;20072;-78
2022/02/07 09:12:56;;;;;;;14.65;3.25;;;16.80;60.50;;;;;;5036855;28;20397;-77
2022/02/07 09:15:41;;;;;;;15.55;2.78;;;16.70;60.20;;;;;;5037531;28;20061;-78
2022/02/07 09:18:10;;;;;;;21.73;3.45;;;16.70;60.80;;;;;;5039041;28;20128;-77
2022/02/07 09:20:38;;;;;;;14.57;3.00;;;16.60;60.40;;;;;;5027310;28;20108;-81
2022/02/07 09:23:05;;;;;;;19.88;3.47;;;16.50;60.50;;;;;;5016650;28;20128;-76
2022/02/07 09:25:31;;;;;;;15.30;3.50;;;16.50;60.60;;;;;;5032210;28;20055;-75
2022/02/07 09:27:57;;;;;;;21.60;3.25;;;16.40;61.10;;;;;;5037906;28;20128;-77
2022/02/07 09:30:24;;;;;;;19.52;3.40;;;16.40;61.60;;;;;;5038362;28;20095;-76
2022/02/07 09:32:50;;;;;;;20.70;2.63;;;16.30;62.30;;;;;;5037319;28;20484;-77
2022/02/07 09:35:16;;;;;;;23.45;4.20;;;16.10;56.80;;;;;;5037694;28;20045;-76
2022/02/07 09:37:42;;;;;;;23.92;4.60;;;16.10;62.10;;;;;;5033373;28;20049;-75
2022/02/07 09:40:10;;;;;;;18.85;3.17;;;16.10;62.10;;;;;;5037646;28;20037;-76
2022/02/07 09:42:41;;;;;;;17.05;2.97;;;16.10;61.40;;;;;;5037482;28;20116;-76
2022/02/07 09:45:13;;;;;;;20.08;2.88;;;16.10;60.90;;;;;;5036845;28;20483;-75
2022/02/07 09:47:40;;;;;;;10.97;3.00;;;16.10;60.70;;;;;;5037819;28;20064;-77
2022/02/07 09:50:07;;;;;;;21.27;3.63;;;16.00;60.60;;;;;;5038045;28;20049;-75
2022/02/07 09:52:33;;;;;;;15.75;2.83;;;16.00;60.70;;;;;;5037496;28;20052;-76
2022/02/07 09:55:00;;;;;;;19.65;3.33;;;16.00;60.80;;;;;;5036820;28;20118;-76
2022/02/07 09:57:25;;;;;;;12.05;3.05;;;16.00;60.80;;;;;;5037577;28;20038;-77
2022/02/07 09:59:53;;;;;;;11.95;2.63;;;15.90;60.90;;;;;;5037667;28;20045;-76
2022/02/07 10:02:37;;;;;;;13.75;2.72;;;15.90;60.90;;;;;;5035948;28;20072;-75
2022/02/07 10:05:09;;;;;;;11.93;2.70;;;15.90;60.90;;;;;;5037860;28;20057;-76
2022/02/07 10:07:48;;;;;;;13.60;2.72;;;15.90;61.10;;;;;;5037300;28;20064;-77
2022/02/07 10:10:22;;;;;;;11.45;2.63;;;15.80;61.10;;;;;;5037215;28;20049;-76
2022/02/07 10:16:21;;;;;;;15.23;3.00;;;15.80;61.70;;;;;;5036146;28;20053;-75
2022/02/07 10:18:16;;;;;;;13.23;3.28;;;15.70;61.20;;;;;;5026188;28;20058;-75
2022/02/07 10:43:13;;;;;;;14.95;2.78;;;15.50;62.30;;;;;;5036348;28;20045;-74
2022/02/07 10:46:19;;;;;;;9.98;2.97;;;15.50;62.40;;;;;;5035909;28;20049;-76
2022/02/07 10:48:52;;;;;;;10.23;2.53;;;15.40;62.40;;;;;;4976152;28;20051;-76
2022/02/07 10:51:23;;;;;;;7.72;1.95;;;15.40;62.50;;;;;;4959653;28;20051;-75
2022/02/07 10:54:12;;;;;;;10.23;2.17;;;15.40;62.60;;;;;;5009078;28;20132;-76
2022/02/07 10:56:42;;;;;;;11.80;3.15;;;15.40;62.50;;;;;;5025581;28;20122;-75
2022/02/07 10:59:13;;;;;;;9.60;2.15;;;15.40;62.60;;;;;;5036259;28;20061;-76
2022/02/07 11:02:07;;;;;;;13.18;2.92;;;15.40;62.50;;;;;;5036253;28;20057;-75
2022/02/07 11:04:37;;;;;;;7.93;2.05;;;15.40;62.50;;;;;;5031276;28;20049;-76
2022/02/07 11:07:03;;;;;;;8.52;2.25;;;15.30;63.10;;;;;;5036279;28;20051;-76
2022/02/07 11:09:38;;;;;;;11.10;3.33;;;15.30;62.50;;;;;;5036274;28;20432;-75
2022/02/07 11:23:12;;;;;;;10.75;2.75;;;15.30;62.60;;;;;;5035738;28;20053;-75
2022/02/07 11:26:04;;;;;;;10.85;2.53;;;15.20;62.60;;;;;;5035754;28;20136;-77
2022/02/07 11:28:39;;;;;;;10.98;2.45;;;15.20;62.60;;;;;;5035606;28;20044;-76
2022/02/07 11:31:06;;;;;;;7.05;1.80;;;15.20;62.60;;;;;;5034993;28;20045;-76
2022/02/07 11:33:40;;;;;;;9.63;2.40;;;15.20;62.60;;;;;;5035830;28;20041;-75
2022/02/07 11:36:29;;;;;;;8.32;2.25;;;15.20;62.60;;;;;;5035439;28;20053;-75
2022/02/07 11:39:02;;;;;;;13.60;2.85;;;15.20;62.60;;;;;;5035907;28;20072;-76
2022/02/07 11:41:28;;;;;;;10.40;2.33;;;15.20;62.60;;;;;;5035845;28;20071;-75
2022/02/07 11:43:54;;;;;;;12.30;2.50;;;15.20;62.60;;;;;;5035427;28;20064;-75
2022/02/07 11:46:21;;;;;;;13.18;2.70;;;15.20;62.50;;;;;;5034815;28;20500;-78
2022/02/07 11:48:52;;;;;;;9.70;2.83;;;15.20;62.50;;;;;;5035351;28;20360;-76
2022/02/07 11:51:22;;;;;;;8.75;2.00;;;15.20;62.50;;;;;;5035266;28;20057;-75
2022/02/07 11:54:02;;;;;;;8.13;2.72;;;15.10;62.50;;;;;;5035351;28;20124;-81
2022/02/07 11:56:53;;;;;;;12.57;2.67;;;15.10;62.20;;;;;;5034151;28;20050;-79
2022/02/07 12:01:53;;;;;;;7.60;1.65;;;15.10;61.70;;;;;;5033022;28;20049;-80
2022/02/07 12:04:40;;;;;;;12.40;2.45;;;15.10;61.50;;;;;;5028646;28;20050;-81
2022/02/07 12:07:08;;;;;;;9.27;2.65;;;15.10;61.80;;;;;;4998320;28;20041;-77
2022/02/07 12:09:36;;;;;;;9.90;2.30;;;15.00;61.70;;;;;;5014490;28;20571;-79
2022/02/07 12:12:02;;;;;;;17.33;2.88;;;15.00;61.80;;;;;;5014715;28;20457;-77
2022/02/07 12:14:29;;;;;;;14.77;2.50;;;15.10;60.40;;;;;;5015088;28;20069;-74
2022/02/07 12:16:55;;;;;;;15.30;3.40;;;15.10;60.20;;;;;;5026779;28;20085;-73
2022/02/07 12:19:33;;;;;;;19.20;4.18;;;15.10;60.30;;;;;;5035351;28;20077;-77
2022/02/07 12:22:12;;;;;;;14.82;4.00;;;15.10;60.70;;;;;;5034104;28;20056;-78
2022/02/07 12:24:55;;;;;;;13.38;2.70;;;15.00;61.00;;;;;;5035559;28;20046;-83
2022/02/07 12:27:21;;;;;;;13.88;3.20;;;15.00;61.40;;;;;;5032610;28;20056;-75
2022/02/07 12:30:05;;;;;;;17.42;3.88;;;15.00;61.70;;;;;;5037242;28;20127;-77
2022/02/07 12:32:32;;;;;;;19.25;3.33;;;15.00;62.20;;;;;;5006747;28;20404;-72
2022/02/07 12:34:58;;;;;;;19.17;3.75;;;15.00;62.80;;;;;;5028913;28;20065;-79
2022/02/07 12:37:24;;;;;;;21.42;4.00;;;14.90;63.00;;;;;;5020113;28;20046;-77
2022/02/07 12:39:50;;;;;;;16.27;3.58;;;15.00;64.50;;;;;;5029070;28;20060;-74
2022/02/07 12:42:16;;;;;;;14.70;3.42;;;15.00;64.40;;;;;;5020519;28;20060;-80
2022/02/07 12:44:42;;;;;;;19.05;4.80;;;15.00;64.90;;;;;;5018551;28;20050;-78
2022/02/07 12:47:13;;;;;;;16.58;4.13;;;15.00;66.50;;;;;;5019031;28;20472;-75
2022/02/07 12:49:44;;;;;;;15.25;3.58;;;15.00;66.70;;;;;;5033278;28;20053;-75
2022/02/07 12:52:10;;;;;;;18.08;3.75;;;15.10;66.20;;;;;;5038398;28;20515;-75
2022/02/07 12:54:37;;;;;;;15.48;3.65;;;15.00;65.40;;;;;;5038640;28;20045;-76
2022/02/07 12:57:03;;;;;;;17.60;3.58;;;15.00;64.50;;;;;;5038694;28;20053;-76
2022/02/07 12:59:30;;;;;;;16.75;3.88;;;15.00;63.30;;;;;;5039258;28;20049;-77
2022/02/07 13:01:55;;;;;;;12.65;3.13;;;15.00;62.40;;;;;;5039025;28;20045;-77
2022/02/07 13:04:23;;;;;;;15.98;3.17;;;15.00;62.50;;;;;;5038217;28;20349;-75
2022/02/07 13:06:54;;;;;;;16.83;3.25;;;15.00;62.30;;;;;;5037803;28;20055;-76
2022/02/07 13:09:29;;;;;;;18.92;3.40;;;14.90;61.70;;;;;;5038098;28;20061;-77
2022/02/07 13:12:02;;;;;;;12.13;2.35;;;14.90;61.60;;;;;;5036628;28;20049;-78
2022/02/07 13:14:29;;;;;;;9.68;2.50;;;15.00;61.60;;;;;;5019468;28;20054;-76
2022/02/07 13:16:55;;;;;;;16.52;2.97;;;15.30;61.60;;;;;;5018423;28;20058;-77
2022/02/07 13:19:22;;;;;;;18.48;4.18;;;15.50;61.70;;;;;;5033521;28;20407;-78
2022/02/07 13:21:51;;;;;;;17.88;4.20;;;15.70;61.60;;;;;;5028455;28;20056;-77
2022/02/07 13:24:20;;;;;;;13.95;3.58;;;15.80;61.40;;;;;;5032550;28;20065;-77
2022/02/07 13:26:51;;;;;;;16.88;3.67;;;15.90;60.00;;;;;;5038034;28;20053;-77
2022/02/07 13:29:27;;;;;;;18.40;3.67;;;15.90;59.00;;;;;;5036701;28;20115;-76
2022/02/07 13:31:58;;;;;;;23.17;3.92;;;16.00;59.30;;;;;;5037928;28;20140;-79
2022/02/07 13:34:27;;;;;;;24.25;3.50;;;16.00;59.10;;;;;;5036983;28;20049;-79
2022/02/07 13:37:04;;;;;;;24.05;4.35;;;16.00;59.40;;;;;;5036707;28;20056;-80
2022/02/07 13:39:31;;;;;;;16.27;3.30;;;16.10;60.30;;;;;;5036867;28;20069;-78
2022/02/07 13:42:02;;;;;;;14.07;3.53;;;16.10;60.50;;;;;;5037895;28;20057;-79
2022/02/07 13:44:28;;;;;;;14.13;3.35;;;16.10;60.70;;;;;;5037504;28;20037;-79
2022/02/07 13:47:03;;;;;;;17.45;3.17;;;16.10;61.00;;;;;;5037903;28;20454;-82
2022/02/07 13:49:31;;;;;;;20.50;3.28;;;15.50;53.60;;;;;;5038083;28;20053;-79
2022/02/07 13:51:57;;;;;;;11.73;3.33;;;15.70;60.10;;;;;;5036164;28;20463;-79
2022/02/07 13:54:29;;;;;;;17.50;4.28;;;15.70;60.60;;;;;;5036961;28;20053;-81
2022/02/07 13:57:00;;;;;;;14.45;3.25;;;15.80;61.10;;;;;;5036506;28;20513;-79
2022/02/07 13:59:35;;;;;;;21.45;3.47;;;15.90;61.30;;;;;;5036571;28;20110;-80
2022/02/07 14:02:01;;;;;;;18.70;3.03;;;15.90;60.50;;;;;;5036568;28;20053;-81
2022/02/07 14:04:28;;;;;;;13.15;2.15;;;16.00;59.80;;;;;;5036163;28;20045;-80
2022/02/07 14:07:15;;;;;;;14.50;2.80;;;16.10;59.20;;;;;;5036837;28;20064;-80
2022/02/07 14:09:41;;;;;;;19.67;3.25;;;16.20;59.90;;;;;;5018928;28;20081;-79
2022/02/07 14:12:12;;;;;;;22.27;3.70;;;16.40;59.80;;;;;;5017843;28;20496;-83
2022/02/07 14:14:38;;;;;;;16.63;3.55;;;16.50;60.00;;;;;;5004344;28;20118;-79
2022/02/07 14:17:05;;;;;;;15.45;3.17;;;16.70;59.90;;;;;;5032435;28;20124;-79
2022/02/07 14:19:38;;;;;;;19.45;3.25;;;16.80;59.70;;;;;;5036142;28;20061;-80
2022/02/07 14:22:05;;;;;;;17.73;3.10;;;16.90;59.70;;;;;;5036161;28;20356;-78
2022/02/07 14:24:31;;;;;;;14.23;2.33;;;16.90;59.70;;;;;;5035796;28;20372;-80
2022/02/07 14:26:57;;;;;;;18.45;2.90;;;17.00;59.60;;;;;;5036964;28;20045;-78
2022/02/07 14:29:22;;;;;;;15.02;2.92;;;17.10;59.50;;;;;;5036885;28;20052;-80
2022/02/07 14:31:48;;;;;;;18.45;2.75;;;17.10;59.40;;;;;;5036928;28;20151;-79
2022/02/07 14:34:14;;;;;;;16.80;2.78;;;17.10;59.40;;;;;;5036845;28;20041;-78
2022/02/07 14:36:39;;;;;;;16.17;2.47;;;17.10;59.40;;;;;;5037050;28;20060;-77
2022/02/07 14:39:06;;;;;;;11.10;1.90;;;17.20;59.50;;;;;;5037273;28;20057;-78
2022/02/07 14:41:32;;;;;;;11.93;2.47;;;17.10;59.40;;;;;;5036118;28;20045;-78
2022/02/07 14:44:01;;;;;;;13.18;2.20;;;17.10;59.50;;;;;;5036861;28;20038;-78
2022/02/07 14:46:35;;;;;;;16.15;2.80;;;17.10;59.50;;;;;;5037737;28;20054;-77
2022/02/07 14:49:01;;;;;;;10.68;1.95;;;17.10;59.50;;;;;;5037144;28;20053;-77
2022/02/07 14:51:26;;;;;;;6.55;1.60;;;17.10;59.80;;;;;;5033377;28;20131;-79
2022/02/07 14:53:52;;;;;;;10.80;2.25;;;17.00;59.90;;;;;;5037655;28;20044;-77
2022/02/07 14:56:18;;;;;;;12.82;2.30;;;17.00;60.00;;;;;;5036565;28;20128;-77
2022/02/07 14:58:44;;;;;;;15.80;2.80;;;17.00;60.10;;;;;;5018069;28;20089;-77
2022/02/07 15:01:11;;;;;;;14.07;2.33;;;17.00;60.10;;;;;;5034682;28;20152;-77
2022/02/07 15:03:37;;;;;;;8.63;2.25;;;17.00;59.90;;;;;;5038701;28;20365;-77
2022/02/07 15:06:04;;;;;;;10.23;2.15;;;17.00;60.20;;;;;;5034303;28;20081;-78
2022/02/07 15:08:30;;;;;;;14.68;2.30;;;16.50;57.50;;;;;;5037323;28;20049;-78
2022/02/07 15:11:01;;;;;;;11.60;2.17;;;16.50;60.80;;;;;;5037892;28;20365;-81
2022/02/07 15:13:33;;;;;;;11.02;1.95;;;16.60;61.50;;;;;;5005321;28;20048;-77
2022/02/07 15:16:06;;;;;;;9.52;1.88;;;16.70;61.40;;;;;;5034771;28;20129;-79
2022/02/07 15:18:35;;;;;;;12.45;1.85;;;16.80;61.20;;;;;;5035345;28;20048;-78
2022/02/07 15:21:17;;;;;;;16.13;1.90;;;16.90;61.60;;;;;;5034483;28;20064;-84
2022/02/07 15:23:43;;;;;;;11.60;2.25;;;16.90;60.80;;;;;;5034645;28;20480;-79
2022/02/07 15:26:12;;;;;;;17.38;1.92;;;17.00;60.70;;;;;;5035318;28;20041;-78
2022/02/07 15:28:39;;;;;;;11.02;2.28;;;17.00;60.70;;;;;;5035836;28;20095;-77
2022/02/07 15:31:11;;;;;;;9.27;1.80;;;17.10;60.90;;;;;;5035412;28;20103;-78